sensor_id;sensor_type;location;lat;lon;timestamp;P1;P2;P0
82622;PMS5003;72291;55.002;-1.592;2023-08-30T00:00:51;1;1;
82622;PMS5003;72291;55.002;-1.592;2023-08-30T00:03:10;0;0;
82622;PMS5003;72291;55.002;-1.592;2023-08-30T00:05:38;2;1;
82622;PMS5003;72291;55.002;-1.592;2023-08-30T00:08:01;3;2;
82622;PMS5003;72291;55.002;-1.592;2023-08-30T00:10:26;1;0;
82622;PMS5003;72291;55.002;-1.592;2023-08-30T00:12:51;1;1;
82622;PMS5003;72291;55.002;-1.592;2023-08-30T00:15:16;3;2;
82622;PMS5003;72291;55.002;-1.592;2023-08-30T00:17:46;2;1;
82622;PMS5003;72291;55.002;-1.592;2023-08-30T00:20:07;1;1;
82622;PMS5003;72291;55.002;-1.592;2023-08-30T00:22:32;2;0;
82622;PMS5003;72291;55.002;-1.592;2023-08-30T00:24:57;2;1;
82622;PMS5003;72291;55.002;-1.592;2023-08-30T00:29:47;4;3;
82622;PMS5003;72291;55.002;-1.592;2023-08-30T00:32:13;3;2;
82622;PMS5003;72291;55.002;-1.592;2023-08-30T00:34:38;1;1;
82622;PMS5003;72291;55.002;-1.592;2023-08-30T00:37:08;1;1;
82622;PMS5003;72291;55.002;-1.592;2023-08-30T00:39:28;2;1;
82622;PMS5003;72291;55.002;-1.592;2023-08-30T00:41:53;0;0;
82622;PMS5003;72291;55.002;-1.592;2023-08-30T00:44:19;2;1;
82622;PMS5003;72291;55.002;-1.592;2023-08-30T00:46:44;5;2;
82622;PMS5003;72291;55.002;-1.592;2023-08-30T00:49:09;1;0;
82622;PMS5003;72291;55.002;-1.592;2023-08-30T00:51:34;2;1;
82622;PMS5003;72291;55.002;-1.592;2023-08-30T00:53:59;2;1;
82622;PMS5003;72291;55.002;-1.592;2023-08-30T00:56:24;2;2;
82622;PMS5003;72291;55.002;-1.592;2023-08-30T00:58:49;4;2;
82622;PMS5003;72291;55.002;-1.592;2023-08-30T01:01:14;3;2;
82622;PMS5003;72291;55.002;-1.592;2023-08-30T01:03:50;1;1;
82622;PMS5003;72291;55.002;-1.592;2023-08-30T01:08:30;1;1;
82622;PMS5003;72291;55.002;-1.592;2023-08-30T01:10:57;1;1;
82622;PMS5003;72291;55.002;-1.592;2023-08-30T01:13:20;0;0;
82622;PMS5003;72291;55.002;-1.592;2023-08-30T01:15:46;1;1;
82622;PMS5003;72291;55.002;-1.592;2023-08-30T01:20:36;1;0;
82622;PMS5003;72291;55.002;-1.592;2023-08-30T01:23:03;1;0;
82622;PMS5003;72291;55.002;-1.592;2023-08-30T01:25:31;2;1;
82622;PMS5003;72291;55.002;-1.592;2023-08-30T01:27:51;2;1;
82622;PMS5003;72291;55.002;-1.592;2023-08-30T01:32:42;0;0;
82622;PMS5003;72291;55.002;-1.592;2023-08-30T01:35:07;0;0;
82622;PMS5003;72291;55.002;-1.592;2023-08-30T01:37:32;2;1;
82622;PMS5003;72291;55.002;-1.592;2023-08-30T01:40:02;1;1;
82622;PMS5003;72291;55.002;-1.592;2023-08-30T01:42:22;2;1;
82622;PMS5003;72291;55.002;-1.592;2023-08-30T01:44:48;4;3;
82622;PMS5003;72291;55.002;-1.592;2023-08-30T01:47:18;1;1;
82622;PMS5003;72291;55.002;-1.592;2023-08-30T01:49:38;1;1;
82622;PMS5003;72291;55.002;-1.592;2023-08-30T01:52:04;1;1;
82622;PMS5003;72291;55.002;-1.592;2023-08-30T01:54:28;1;1;
82622;PMS5003;72291;55.002;-1.592;2023-08-30T01:56:54;1;0;
82622;PMS5003;72291;55.002;-1.592;2023-08-30T01:59:19;1;1;
82622;PMS5003;72291;55.002;-1.592;2023-08-30T02:01:44;0;0;
82622;PMS5003;72291;55.002;-1.592;2023-08-30T02:06:35;1;1;
82622;PMS5003;72291;55.002;-1.592;2023-08-30T02:09:02;1;1;
82622;PMS5003;72291;55.002;-1.592;2023-08-30T02:11:26;2;1;
82622;PMS5003;72291;55.002;-1.592;2023-08-30T02:13:50;2;1;
82622;PMS5003;72291;55.002;-1.592;2023-08-30T02:16:14;4;2;
82622;PMS5003;72291;55.002;-1.592;2023-08-30T02:18:40;3;2;
82622;PMS5003;72291;55.002;-1.592;2023-08-30T02:21:10;0;0;
82622;PMS5003;72291;55.002;-1.592;2023-08-30T02:23:30;1;0;
82622;PMS5003;72291;55.002;-1.592;2023-08-30T02:25:55;1;1;
82622;PMS5003;72291;55.002;-1.592;2023-08-30T02:28:20;1;1;
82622;PMS5003;72291;55.002;-1.592;2023-08-30T02:30:45;2;1;
82622;PMS5003;72291;55.002;-1.592;2023-08-30T02:33:11;1;1;
82622;PMS5003;72291;55.002;-1.592;2023-08-30T02:35:36;1;1;
82622;PMS5003;72291;55.002;-1.592;2023-08-30T02:38:01;1;1;
82622;PMS5003;72291;55.002;-1.592;2023-08-30T02:40:26;0;0;
82622;PMS5003;72291;55.002;-1.592;2023-08-30T02:42:51;2;0;
82622;PMS5003;72291;55.002;-1.592;2023-08-30T02:45:16;2;1;
82622;PMS5003;72291;55.002;-1.592;2023-08-30T02:47:41;2;2;
82622;PMS5003;72291;55.002;-1.592;2023-08-30T02:50:06;6;2;
82622;PMS5003;72291;55.002;-1.592;2023-08-30T02:52:31;1;1;
82622;PMS5003;72291;55.002;-1.592;2023-08-30T02:54:57;1;1;
82622;PMS5003;72291;55.002;-1.592;2023-08-30T02:57:22;0;0;
82622;PMS5003;72291;55.002;-1.592;2023-08-30T02:59:47;1;0;
82622;PMS5003;72291;55.002;-1.592;2023-08-30T03:02:12;2;1;
82622;PMS5003;72291;55.002;-1.592;2023-08-30T03:04:37;2;2;
82622;PMS5003;72291;55.002;-1.592;2023-08-30T03:07:02;1;1;
82622;PMS5003;72291;55.002;-1.592;2023-08-30T03:09:27;2;0;
82622;PMS5003;72291;55.002;-1.592;2023-08-30T03:11:52;2;2;
82622;PMS5003;72291;55.002;-1.592;2023-08-30T03:14:18;0;0;
82622;PMS5003;72291;55.002;-1.592;2023-08-30T03:16:43;2;1;
82622;PMS5003;72291;55.002;-1.592;2023-08-30T03:19:08;0;0;
82622;PMS5003;72291;55.002;-1.592;2023-08-30T03:21:33;3;2;
82622;PMS5003;72291;55.002;-1.592;2023-08-30T03:23:58;1;0;
82622;PMS5003;72291;55.002;-1.592;2023-08-30T03:26:23;2;2;
82622;PMS5003;72291;55.002;-1.592;2023-08-30T03:28:48;1;0;
82622;PMS5003;72291;55.002;-1.592;2023-08-30T03:33:39;2;1;
82622;PMS5003;72291;55.002;-1.592;2023-08-30T03:36:05;2;2;
82622;PMS5003;72291;55.002;-1.592;2023-08-30T03:38:30;2;2;
82622;PMS5003;72291;55.002;-1.592;2023-08-30T03:40:55;2;1;
82622;PMS5003;72291;55.002;-1.592;2023-08-30T03:45:45;1;1;
82622;PMS5003;72291;55.002;-1.592;2023-08-30T03:48:10;1;1;
82622;PMS5003;72291;55.002;-1.592;2023-08-30T03:50:35;2;1;
82622;PMS5003;72291;55.002;-1.592;2023-08-30T03:53:00;1;1;
82622;PMS5003;72291;55.002;-1.592;2023-08-30T03:55:26;2;1;
82622;PMS5003;72291;55.002;-1.592;2023-08-30T03:57:51;0;0;
82622;PMS5003;72291;55.002;-1.592;2023-08-30T04:00:21;0;0;
82622;PMS5003;72291;55.002;-1.592;2023-08-30T04:02:41;1;1;
82622;PMS5003;72291;55.002;-1.592;2023-08-30T04:05:06;5;3;
82622;PMS5003;72291;55.002;-1.592;2023-08-30T04:07:31;1;1;
82622;PMS5003;72291;55.002;-1.592;2023-08-30T04:09:57;2;1;
82622;PMS5003;72291;55.002;-1.592;2023-08-30T04:12:22;2;1;
82622;PMS5003;72291;55.002;-1.592;2023-08-30T04:14:47;0;0;
82622;PMS5003;72291;55.002;-1.592;2023-08-30T04:17:12;1;1;
82622;PMS5003;72291;55.002;-1.592;2023-08-30T04:19:37;1;1;
82622;PMS5003;72291;55.002;-1.592;2023-08-30T04:22:04;3;2;
82622;PMS5003;72291;55.002;-1.592;2023-08-30T04:24:27;1;1;
82622;PMS5003;72291;55.002;-1.592;2023-08-30T04:26:52;0;0;
82622;PMS5003;72291;55.002;-1.592;2023-08-30T04:29:18;1;0;
82622;PMS5003;72291;55.002;-1.592;2023-08-30T04:31:43;2;2;
82622;PMS5003;72291;55.002;-1.592;2023-08-30T04:36:33;2;2;
82622;PMS5003;72291;55.002;-1.592;2023-08-30T04:38:58;3;2;
82622;PMS5003;72291;55.002;-1.592;2023-08-30T04:41:23;2;1;
82622;PMS5003;72291;55.002;-1.592;2023-08-30T04:43:48;2;1;
82622;PMS5003;72291;55.002;-1.592;2023-08-30T04:48:39;4;4;
82622;PMS5003;72291;55.002;-1.592;2023-08-30T04:51:04;1;1;
82622;PMS5003;72291;55.002;-1.592;2023-08-30T04:53:29;2;2;
82622;PMS5003;72291;55.002;-1.592;2023-08-30T04:55:54;3;2;
82622;PMS5003;72291;55.002;-1.592;2023-08-30T04:58:19;1;0;
82622;PMS5003;72291;55.002;-1.592;2023-08-30T05:00:50;3;3;
82622;PMS5003;72291;55.002;-1.592;2023-08-30T05:03:10;2;2;
82622;PMS5003;72291;55.002;-1.592;2023-08-30T05:05:35;3;2;
82622;PMS5003;72291;55.002;-1.592;2023-08-30T05:08:00;1;0;
82622;PMS5003;72291;55.002;-1.592;2023-08-30T05:10:25;1;1;
82622;PMS5003;72291;55.002;-1.592;2023-08-30T05:12:51;2;1;
82622;PMS5003;72291;55.002;-1.592;2023-08-30T05:15:21;2;2;
82622;PMS5003;72291;55.002;-1.592;2023-08-30T05:17:41;2;2;
82622;PMS5003;72291;55.002;-1.592;2023-08-30T05:20:06;3;2;
82622;PMS5003;72291;55.002;-1.592;2023-08-30T05:22:31;3;2;
82622;PMS5003;72291;55.002;-1.592;2023-08-30T05:24:56;2;2;
82622;PMS5003;72291;55.002;-1.592;2023-08-30T05:27:21;2;1;
82622;PMS5003;72291;55.002;-1.592;2023-08-30T05:29:47;3;2;
82622;PMS5003;72291;55.002;-1.592;2023-08-30T05:34:37;2;1;
82622;PMS5003;72291;55.002;-1.592;2023-08-30T05:37:02;2;1;
82622;PMS5003;72291;55.002;-1.592;2023-08-30T05:39:27;1;1;
82622;PMS5003;72291;55.002;-1.592;2023-08-30T05:41:52;1;1;
82622;PMS5003;72291;55.002;-1.592;2023-08-30T05:46:42;2;2;
82622;PMS5003;72291;55.002;-1.592;2023-08-30T05:49:08;1;1;
82622;PMS5003;72291;55.002;-1.592;2023-08-30T05:51:33;2;1;
82622;PMS5003;72291;55.002;-1.592;2023-08-30T05:54:03;3;2;
82622;PMS5003;72291;55.002;-1.592;2023-08-30T05:56:23;2;2;
82622;PMS5003;72291;55.002;-1.592;2023-08-30T05:58:48;1;1;
82622;PMS5003;72291;55.002;-1.592;2023-08-30T06:01:13;2;2;
82622;PMS5003;72291;55.002;-1.592;2023-08-30T06:03:38;1;0;
82622;PMS5003;72291;55.002;-1.592;2023-08-30T06:06:04;1;0;
82622;PMS5003;72291;55.002;-1.592;2023-08-30T06:08:29;2;1;
82622;PMS5003;72291;55.002;-1.592;2023-08-30T06:13:19;1;1;
82622;PMS5003;72291;55.002;-1.592;2023-08-30T06:15:44;1;1;
82622;PMS5003;72291;55.002;-1.592;2023-08-30T06:18:09;1;1;
82622;PMS5003;72291;55.002;-1.592;2023-08-30T06:20:40;2;2;
82622;PMS5003;72291;55.002;-1.592;2023-08-30T06:23:02;3;2;
82622;PMS5003;72291;55.002;-1.592;2023-08-30T06:25:25;1;1;
82622;PMS5003;72291;55.002;-1.592;2023-08-30T06:27:55;1;1;
82622;PMS5003;72291;55.002;-1.592;2023-08-30T06:30:15;2;2;
82622;PMS5003;72291;55.002;-1.592;2023-08-30T06:32:40;1;1;
82622;PMS5003;72291;55.002;-1.592;2023-08-30T06:35:06;2;2;
82622;PMS5003;72291;55.002;-1.592;2023-08-30T06:37:31;3;1;
82622;PMS5003;72291;55.002;-1.592;2023-08-30T06:39:56;2;1;
82622;PMS5003;72291;55.002;-1.592;2023-08-30T06:42:21;1;1;
82622;PMS5003;72291;55.002;-1.592;2023-08-30T06:44:46;2;2;
82622;PMS5003;72291;55.002;-1.592;2023-08-30T06:49:39;1;1;
82622;PMS5003;72291;55.002;-1.592;2023-08-30T06:52:02;2;1;
82622;PMS5003;72291;55.002;-1.592;2023-08-30T07:01:59;0;0;
82622;PMS5003;72291;55.002;-1.592;2023-08-30T07:11:23;2;2;
82622;PMS5003;72291;55.002;-1.592;2023-08-30T07:16:14;0;0;
82622;PMS5003;72291;55.002;-1.592;2023-08-30T07:38:00;0;0;
82622;PMS5003;72291;55.002;-1.592;2023-08-30T07:40:25;0;0;
82622;PMS5003;72291;55.002;-1.592;2023-08-30T07:42:50;0;0;
82622;PMS5003;72291;55.002;-1.592;2023-08-30T07:47:45;2;0;
82622;PMS5003;72291;55.002;-1.592;2023-08-30T07:50:06;1;0;
82622;PMS5003;72291;55.002;-1.592;2023-08-30T07:52:37;4;4;
82622;PMS5003;72291;55.002;-1.592;2023-08-30T07:55:00;1;1;
82622;PMS5003;72291;55.002;-1.592;2023-08-30T08:11:59;0;0;
82622;PMS5003;72291;55.002;-1.592;2023-08-30T08:14:17;0;0;
82622;PMS5003;72291;55.002;-1.592;2023-08-30T09:31:45;0;0;
82622;PMS5003;72291;55.002;-1.592;2023-08-30T11:42:19;1;0;
82622;PMS5003;72291;55.002;-1.592;2023-08-30T11:44:47;0;0;
82622;PMS5003;72291;55.002;-1.592;2023-08-30T11:47:07;1;1;
82622;PMS5003;72291;55.002;-1.592;2023-08-30T12:28:19;2;1;
82622;PMS5003;72291;55.002;-1.592;2023-08-30T12:47:34;3;2;
82622;PMS5003;72291;55.002;-1.592;2023-08-30T12:49:59;2;2;
82622;PMS5003;72291;55.002;-1.592;2023-08-30T12:52:25;1;1;
82622;PMS5003;72291;55.002;-1.592;2023-08-30T12:54:54;1;1;
82622;PMS5003;72291;55.002;-1.592;2023-08-30T13:14:10;2;2;
82622;PMS5003;72291;55.002;-1.592;2023-08-30T13:19:03;0;0;
82622;PMS5003;72291;55.002;-1.592;2023-08-30T13:21:26;1;1;
82622;PMS5003;72291;55.002;-1.592;2023-08-30T13:23:52;0;0;
82622;PMS5003;72291;55.002;-1.592;2023-08-30T15:58:43;0;0;
82622;PMS5003;72291;55.002;-1.592;2023-08-30T16:22:59;1;1;
82622;PMS5003;72291;55.002;-1.592;2023-08-30T16:27:50;2;2;
82622;PMS5003;72291;55.002;-1.592;2023-08-30T16:44:41;1;1;
82622;PMS5003;72291;55.002;-1.592;2023-08-30T17:01:37;1;1;
82622;PMS5003;72291;55.002;-1.592;2023-08-30T17:04:03;0;0;
82622;PMS5003;72291;55.002;-1.592;2023-08-30T17:06:27;1;1;
82622;PMS5003;72291;55.002;-1.592;2023-08-30T17:13:41;2;1;
82622;PMS5003;72291;55.002;-1.592;2023-08-30T17:23:27;1;0;
82622;PMS5003;72291;55.002;-1.592;2023-08-30T17:25:48;0;0;
82622;PMS5003;72291;55.002;-1.592;2023-08-30T17:28:12;1;0;
82622;PMS5003;72291;55.002;-1.592;2023-08-30T17:30:37;0;0;
82622;PMS5003;72291;55.002;-1.592;2023-08-30T17:35:28;1;1;
82622;PMS5003;72291;55.002;-1.592;2023-08-30T17:37:52;0;0;
82622;PMS5003;72291;55.002;-1.592;2023-08-30T17:42:42;0;0;
82622;PMS5003;72291;55.002;-1.592;2023-08-30T17:47:34;0;0;
82622;PMS5003;72291;55.002;-1.592;2023-08-30T17:49:58;1;1;
82622;PMS5003;72291;55.002;-1.592;2023-08-30T17:57:13;1;0;
82622;PMS5003;72291;55.002;-1.592;2023-08-30T17:59:38;2;1;
82622;PMS5003;72291;55.002;-1.592;2023-08-30T18:02:04;0;0;
82622;PMS5003;72291;55.002;-1.592;2023-08-30T18:06:53;1;1;
82622;PMS5003;72291;55.002;-1.592;2023-08-30T18:14:09;2;2;
82622;PMS5003;72291;55.002;-1.592;2023-08-30T18:19:03;1;1;
82622;PMS5003;72291;55.002;-1.592;2023-08-30T18:31:06;0;0;
82622;PMS5003;72291;55.002;-1.592;2023-08-30T18:33:35;1;1;
82622;PMS5003;72291;55.002;-1.592;2023-08-30T18:35:54;2;0;
82622;PMS5003;72291;55.002;-1.592;2023-08-30T18:43:11;1;1;
82622;PMS5003;72291;55.002;-1.592;2023-08-30T18:48:00;3;1;
82622;PMS5003;72291;55.002;-1.592;2023-08-30T18:52:50;0;0;
82622;PMS5003;72291;55.002;-1.592;2023-08-30T19:12:16;1;1;
82622;PMS5003;72291;55.002;-1.592;2023-08-30T19:14:38;1;1;
82622;PMS5003;72291;55.002;-1.592;2023-08-30T19:19:30;1;1;
82622;PMS5003;72291;55.002;-1.592;2023-08-30T19:21:52;1;0;
82622;PMS5003;72291;55.002;-1.592;2023-08-30T19:26:42;3;2;
82622;PMS5003;72291;55.002;-1.592;2023-08-30T19:31:32;2;1;
82622;PMS5003;72291;55.002;-1.592;2023-08-30T19:33:57;4;3;
82622;PMS5003;72291;55.002;-1.592;2023-08-30T19:38:47;1;1;
82622;PMS5003;72291;55.002;-1.592;2023-08-30T19:41:13;1;1;
82622;PMS5003;72291;55.002;-1.592;2023-08-30T19:43:45;2;2;
82622;PMS5003;72291;55.002;-1.592;2023-08-30T19:46:04;0;0;
82622;PMS5003;72291;55.002;-1.592;2023-08-30T19:50:54;2;2;
82622;PMS5003;72291;55.002;-1.592;2023-08-30T19:55:43;2;2;
82622;PMS5003;72291;55.002;-1.592;2023-08-30T20:03:01;5;4;
82622;PMS5003;72291;55.002;-1.592;2023-08-30T20:07:50;2;2;
82622;PMS5003;72291;55.002;-1.592;2023-08-30T20:12:45;3;3;
82622;PMS5003;72291;55.002;-1.592;2023-08-30T20:17:30;1;1;
82622;PMS5003;72291;55.002;-1.592;2023-08-30T20:19:56;4;3;
82622;PMS5003;72291;55.002;-1.592;2023-08-30T20:24:50;3;3;
82622;PMS5003;72291;55.002;-1.592;2023-08-30T20:29:36;3;3;
82622;PMS5003;72291;55.002;-1.592;2023-08-30T20:32:01;4;4;
82622;PMS5003;72291;55.002;-1.592;2023-08-30T20:36:52;4;4;
82622;PMS5003;72291;55.002;-1.592;2023-08-30T20:39:17;8;6;
82622;PMS5003;72291;55.002;-1.592;2023-08-30T20:41:43;9;6;
82622;PMS5003;72291;55.002;-1.592;2023-08-30T20:44:07;8;8;
82622;PMS5003;72291;55.002;-1.592;2023-08-30T20:46:34;7;6;
82622;PMS5003;72291;55.002;-1.592;2023-08-30T20:48:57;4;4;
82622;PMS5003;72291;55.002;-1.592;2023-08-30T20:53:53;7;7;
82622;PMS5003;72291;55.002;-1.592;2023-08-30T20:56:14;6;5;
82622;PMS5003;72291;55.002;-1.592;2023-08-30T20:58:44;7;6;
82622;PMS5003;72291;55.002;-1.592;2023-08-30T21:01:03;6;6;
82622;PMS5003;72291;55.002;-1.592;2023-08-30T21:05:54;11;8;
82622;PMS5003;72291;55.002;-1.592;2023-08-30T21:08:19;10;8;
82622;PMS5003;72291;55.002;-1.592;2023-08-30T21:10:45;6;6;
82622;PMS5003;72291;55.002;-1.592;2023-08-30T21:15:34;7;6;
82622;PMS5003;72291;55.002;-1.592;2023-08-30T21:18:04;4;4;
82622;PMS5003;72291;55.002;-1.592;2023-08-30T21:22:50;8;8;
82622;PMS5003;72291;55.002;-1.592;2023-08-30T21:27:40;5;5;
82622;PMS5003;72291;55.002;-1.592;2023-08-30T21:32:30;7;5;
82622;PMS5003;72291;55.002;-1.592;2023-08-30T21:34:56;6;5;
82622;PMS5003;72291;55.002;-1.592;2023-08-30T21:39:47;6;5;
82622;PMS5003;72291;55.002;-1.592;2023-08-30T21:44:36;9;9;
82622;PMS5003;72291;55.002;-1.592;2023-08-30T21:47:01;10;9;
82622;PMS5003;72291;55.002;-1.592;2023-08-30T21:49:27;6;6;
82622;PMS5003;72291;55.002;-1.592;2023-08-30T21:51:52;10;8;
82622;PMS5003;72291;55.002;-1.592;2023-08-30T21:56:42;8;8;
82622;PMS5003;72291;55.002;-1.592;2023-08-30T21:59:07;7;7;
82622;PMS5003;72291;55.002;-1.592;2023-08-30T22:01:32;7;6;
82622;PMS5003;72291;55.002;-1.592;2023-08-30T22:03:57;6;5;
82622;PMS5003;72291;55.002;-1.592;2023-08-30T22:13:38;5;4;
82622;PMS5003;72291;55.002;-1.592;2023-08-30T22:18:28;6;6;
82622;PMS5003;72291;55.002;-1.592;2023-08-30T22:20:55;6;5;
82622;PMS5003;72291;55.002;-1.592;2023-08-30T22:25:44;6;6;
82622;PMS5003;72291;55.002;-1.592;2023-08-30T22:30:34;7;7;
82622;PMS5003;72291;55.002;-1.592;2023-08-30T22:33:00;7;7;
82622;PMS5003;72291;55.002;-1.592;2023-08-30T22:35:25;6;6;
82622;PMS5003;72291;55.002;-1.592;2023-08-30T22:37:50;6;5;
82622;PMS5003;72291;55.002;-1.592;2023-08-30T22:40:15;9;6;
82622;PMS5003;72291;55.002;-1.592;2023-08-30T22:42:40;3;3;
82622;PMS5003;72291;55.002;-1.592;2023-08-30T22:49:59;8;7;
82622;PMS5003;72291;55.002;-1.592;2023-08-30T22:54:46;6;6;
82622;PMS5003;72291;55.002;-1.592;2023-08-30T22:59:36;7;5;
82622;PMS5003;72291;55.002;-1.592;2023-08-30T23:02:01;8;7;
82622;PMS5003;72291;55.002;-1.592;2023-08-30T23:06:51;4;4;
82622;PMS5003;72291;55.002;-1.592;2023-08-30T23:11:43;4;3;
82622;PMS5003;72291;55.002;-1.592;2023-08-30T23:14:07;7;5;
82622;PMS5003;72291;55.002;-1.592;2023-08-30T23:16:32;5;5;
82622;PMS5003;72291;55.002;-1.592;2023-08-30T23:18:57;5;5;
82622;PMS5003;72291;55.002;-1.592;2023-08-30T23:23:48;4;3;
82622;PMS5003;72291;55.002;-1.592;2023-08-30T23:26:13;3;2;
82622;PMS5003;72291;55.002;-1.592;2023-08-30T23:28:38;2;2;
82622;PMS5003;72291;55.002;-1.592;2023-08-30T23:31:04;1;1;
82622;PMS5003;72291;55.002;-1.592;2023-08-30T23:33:28;2;2;
82622;PMS5003;72291;55.002;-1.592;2023-08-30T23:35:59;3;2;
82622;PMS5003;72291;55.002;-1.592;2023-08-30T23:40:44;1;1;
82622;PMS5003;72291;55.002;-1.592;2023-08-30T23:43:09;2;2;
82622;PMS5003;72291;55.002;-1.592;2023-08-30T23:47:59;2;2;
82622;PMS5003;72291;55.002;-1.592;2023-08-30T23:52:50;1;1;
82622;PMS5003;72291;55.002;-1.592;2023-08-30T23:55:14;3;2;
82622;PMS5003;72291;55.002;-1.592;2023-08-30T23:57:39;4;3;
